Time;durP1;ratioP1;P1;durP2;ratioP2;P2;SDS_P1;SDS_P2;PMS_P1;PMS_P2;Temp;Humidity;BMP_temperature;BMP_pressure;BME280_temperature;BME280_humidity;BME280_pressure;Samples;Min_cycle;Max_cycle;Signal;HPM_P1;HPM_P2
2023/04/18 00:01:32;;;;;;;17.03;8.70;;;;;;;;;;4968917;28;20031;-67
2023/04/18 00:03:57;;;;;;;19.53;8.90;;;;;;;;;;4976413;28;20033;-69
2023/04/18 00:06:22;;;;;;;17.25;8.63;;;;;;;;;;4965649;28;20451;-65
2023/04/18 00:08:48;;;;;;;18.40;8.82;;;;;;;;;;4973261;28;20487;-69
2023/04/18 00:11:13;;;;;;;19.35;10.25;;;;;;;;;;4974395;28;20033;-65
2023/04/18 00:13:39;;;;;;;17.73;8.60;;;;;;;;;;4967900;28;20022;-66
2023/04/18 00:16:04;;;;;;;20.00;9.27;;;;;;;;;;4971241;28;20027;-66
2023/04/18 00:18:30;;;;;;;20.33;9.60;;;;;;;;;;4966211;28;20027;-70
2023/04/18 00:20:55;;;;;;;17.90;8.83;;;;;;;;;;4974463;28;20023;-67
2023/04/18 00:23:21;;;;;;;18.92;10.18;;;;;;;;;;4969445;28;20037;-65
2023/04/18 00:25:49;;;;;;;20.67;11.35;;;;;;;;;;4979006;28;20031;-68
2023/04/18 00:28:14;;;;;;;21.40;12.85;;;;;;;;;;4974951;28;20121;-69
2023/04/18 00:30:39;;;;;;;22.17;11.50;;;;;;;;;;4970677;28;20538;-66
2023/04/18 00:33:05;;;;;;;19.70;10.70;;;;;;;;;;4969236;28;20022;-71
2023/04/18 00:35:30;;;;;;;23.38;11.93;;;;;;;;;;4971000;28;20031;-69
2023/04/18 00:37:56;;;;;;;19.60;9.88;;;;;;;;;;4959925;28;20025;-67
2023/04/18 00:40:21;;;;;;;18.60;10.77;;;;;;;;;;4963958;28;20026;-66
2023/04/18 00:42:46;;;;;;;20.83;11.50;;;;;;;;;;4967001;28;20019;-75
2023/04/18 00:45:11;;;;;;;25.33;13.95;;;;;;;;;;4968413;28;20039;-74
2023/04/18 00:47:36;;;;;;;20.17;12.17;;;;;;;;;;4963683;28;20494;-70
2023/04/18 00:50:02;;;;;;;23.90;13.88;;;;;;;;;;4966630;28;20606;-70
2023/04/18 00:52:27;;;;;;;29.20;15.63;;;;;;;;;;4959726;28;20077;-69
2023/04/18 00:54:53;;;;;;;25.43;14.97;;;;;;;;;;4957524;28;20031;-65
2023/04/18 00:57:18;;;;;;;24.25;14.45;;;;;;;;;;4959064;28;20042;-67
2023/04/18 00:59:45;;;;;;;23.58;14.35;;;;;;;;;;4960813;28;20774;-67
2023/04/18 01:02:11;;;;;;;23.60;15.63;;;;;;;;;;4969332;28;20030;-69
2023/04/18 01:04:36;;;;;;;25.02;15.95;;;;;;;;;;4961947;28;20546;-67
2023/04/18 01:07:02;;;;;;;25.30;15.95;;;;;;;;;;4963534;28;20371;-66
2023/04/18 01:09:27;;;;;;;25.85;17.08;;;;;;;;;;4962042;28;20405;-67
2023/04/18 01:11:52;;;;;;;24.40;15.80;;;;;;;;;;4955780;28;20086;-66
2023/04/18 01:14:18;;;;;;;26.92;15.95;;;;;;;;;;4959814;28;20238;-67
2023/04/18 01:16:43;;;;;;;25.85;17.15;;;;;;;;;;4956932;28;20058;-66
2023/04/18 01:19:10;;;;;;;27.20;17.55;;;;;;;;;;4959121;28;20019;-66
2023/04/18 01:21:36;;;;;;;28.25;17.88;;;;;;;;;;4960553;28;20019;-66
2023/04/18 01:24:07;;;;;;;28.25;15.73;;;;;;;;;;4974196;28;20067;-69
2023/04/18 01:26:33;;;;;;;27.50;16.25;;;;;;;;;;4970539;28;20141;-70
2023/04/18 01:28:58;;;;;;;26.43;17.60;;;;;;;;;;4964975;28;20119;-65
2023/04/18 01:31:23;;;;;;;22.42;14.73;;;;;;;;;;4963286;28;20038;-68
2023/04/18 01:33:48;;;;;;;23.98;16.63;;;;;;;;;;4957135;28;20097;-65
2023/04/18 01:36:13;;;;;;;28.98;18.85;;;;;;;;;;4966777;28;20058;-75
2023/04/18 01:38:39;;;;;;;26.80;15.98;;;;;;;;;;4967778;28;20023;-69
2023/04/18 01:41:04;;;;;;;26.85;17.45;;;;;;;;;;4959104;28;20018;-69
2023/04/18 01:43:30;;;;;;;29.43;16.90;;;;;;;;;;4966726;28;20035;-69
2023/04/18 01:45:55;;;;;;;25.73;16.52;;;;;;;;;;4969339;28;20035;-66
2023/04/18 01:48:21;;;;;;;25.50;16.73;;;;;;;;;;4967126;28;20050;-65
2023/04/18 01:50:46;;;;;;;30.98;18.77;;;;;;;;;;4971096;28;20027;-65
2023/04/18 01:53:11;;;;;;;28.00;17.50;;;;;;;;;;4979916;28;20026;-66
2023/04/18 01:55:36;;;;;;;29.25;19.55;;;;;;;;;;4971480;28;20564;-65
2023/04/18 01:58:01;;;;;;;29.70;18.07;;;;;;;;;;4972586;28;20027;-70
2023/04/18 02:00:26;;;;;;;27.70;17.25;;;;;;;;;;4973296;28;20023;-66
2023/04/18 02:02:51;;;;;;;30.08;18.77;;;;;;;;;;4980061;28;20382;-70
2023/04/18 02:05:17;;;;;;;29.40;17.33;;;;;;;;;;4973033;28;20061;-66
2023/04/18 02:07:42;;;;;;;29.93;18.30;;;;;;;;;;4974388;28;20037;-68
2023/04/18 02:10:08;;;;;;;31.73;19.00;;;;;;;;;;4969385;28;20089;-71
2023/04/18 02:12:33;;;;;;;31.63;18.00;;;;;;;;;;4965391;28;20078;-67
2023/04/18 02:14:58;;;;;;;34.27;20.03;;;;;;;;;;4969594;28;20023;-66
2023/04/18 02:17:24;;;;;;;32.07;19.30;;;;;;;;;;4976326;28;20022;-65
2023/04/18 02:19:52;;;;;;;31.13;19.07;;;;;;;;;;4971524;28;20532;-73
2023/04/18 02:22:17;;;;;;;30.30;18.77;;;;;;;;;;4974492;28;21056;-66
2023/04/18 02:24:42;;;;;;;30.40;18.47;;;;;;;;;;4967875;28;20018;-66
2023/04/18 02:27:07;;;;;;;29.93;17.50;;;;;;;;;;4971135;28;20027;-66
2023/04/18 02:29:32;;;;;;;32.55;18.45;;;;;;;;;;4966374;28;21047;-66
2023/04/18 02:31:58;;;;;;;34.27;20.33;;;;;;;;;;4958684;28;20050;-65
2023/04/18 02:34:23;;;;;;;31.30;18.42;;;;;;;;;;4960088;28;20023;-67
2023/04/18 02:36:48;;;;;;;36.87;20.23;;;;;;;;;;4955390;28;20510;-69
2023/04/18 02:39:13;;;;;;;36.83;19.70;;;;;;;;;;4957220;28;20042;-65
2023/04/18 02:41:38;;;;;;;31.40;18.53;;;;;;;;;;4956179;28;20024;-67
2023/04/18 02:44:04;;;;;;;32.87;18.73;;;;;;;;;;4962582;28;20042;-66
2023/04/18 02:46:29;;;;;;;33.75;18.75;;;;;;;;;;4959139;28;20034;-67
2023/04/18 02:48:54;;;;;;;33.33;19.60;;;;;;;;;;4965747;28;20049;-67
2023/04/18 02:51:20;;;;;;;33.72;19.23;;;;;;;;;;4954971;28;20106;-69
2023/04/18 02:53:45;;;;;;;31.90;18.27;;;;;;;;;;4956087;28;20041;-66
2023/04/18 02:56:13;;;;;;;33.97;19.02;;;;;;;;;;4953222;28;20041;-70
2023/04/18 02:58:39;;;;;;;32.78;19.33;;;;;;;;;;4960197;28;20023;-69
2023/04/18 03:01:04;;;;;;;33.95;18.73;;;;;;;;;;4963655;28;20475;-66
2023/04/18 03:03:29;;;;;;;33.38;18.48;;;;;;;;;;4964784;28;20027;-65
2023/04/18 03:05:54;;;;;;;32.87;18.43;;;;;;;;;;4964564;28;20023;-71
2023/04/18 03:08:19;;;;;;;33.53;18.42;;;;;;;;;;4956150;28;20530;-65
2023/04/18 03:10:45;;;;;;;29.35;17.33;;;;;;;;;;4968246;28;20061;-69
2023/04/18 03:13:10;;;;;;;28.07;16.50;;;;;;;;;;4964610;28;20027;-65
2023/04/18 03:15:36;;;;;;;31.85;17.55;;;;;;;;;;4964803;28;20015;-68
2023/04/18 03:18:01;;;;;;;31.50;16.67;;;;;;;;;;4964975;28;20029;-69
2023/04/18 03:20:26;;;;;;;31.33;18.10;;;;;;;;;;4962300;28;20105;-71
2023/04/18 03:22:51;;;;;;;31.52;17.38;;;;;;;;;;4965689;28;20197;-68
2023/04/18 03:25:16;;;;;;;30.43;17.07;;;;;;;;;;4971060;28;20023;-64
2023/04/18 03:27:42;;;;;;;26.50;16.00;;;;;;;;;;4963800;28;20026;-66
2023/04/18 03:30:07;;;;;;;28.10;16.50;;;;;;;;;;4965746;28;20426;-66
2023/04/18 03:32:33;;;;;;;29.97;16.67;;;;;;;;;;4970603;28;20054;-65
2023/04/18 03:34:59;;;;;;;31.98;17.88;;;;;;;;;;4976167;28;20549;-66
2023/04/18 03:37:24;;;;;;;34.03;16.63;;;;;;;;;;4972337;28;20107;-67
2023/04/18 03:39:49;;;;;;;27.77;16.02;;;;;;;;;;4967784;28;20542;-68
2023/04/18 03:42:14;;;;;;;29.47;17.07;;;;;;;;;;4969037;28;20019;-65
2023/04/18 03:44:39;;;;;;;26.27;15.38;;;;;;;;;;4971197;28;20413;-68
2023/04/18 03:47:05;;;;;;;30.50;16.27;;;;;;;;;;4965688;28;20153;-66
2023/04/18 03:49:30;;;;;;;30.77;16.23;;;;;;;;;;4969933;28;21104;-67
2023/04/18 03:51:55;;;;;;;30.33;16.33;;;;;;;;;;4964118;28;20034;-65
2023/04/18 03:54:20;;;;;;;32.47;16.98;;;;;;;;;;4972339;28;20046;-66
2023/04/18 03:56:45;;;;;;;29.90;16.00;;;;;;;;;;4968276;28;20027;-65
2023/04/18 03:59:10;;;;;;;27.93;15.63;;;;;;;;;;4975023;28;20113;-65
2023/04/18 04:01:36;;;;;;;31.50;17.40;;;;;;;;;;4977571;28;20463;-69
2023/04/18 04:04:01;;;;;;;31.75;16.85;;;;;;;;;;4974521;28;20023;-66
2023/04/18 04:06:27;;;;;;;27.73;14.85;;;;;;;;;;4970158;28;20026;-67
2023/04/18 04:08:52;;;;;;;30.43;16.80;;;;;;;;;;4974505;28;20422;-70
2023/04/18 04:11:17;;;;;;;31.97;16.80;;;;;;;;;;4974768;28;20023;-66
2023/04/18 04:13:42;;;;;;;31.65;17.25;;;;;;;;;;4975822;28;20010;-69
2023/04/18 04:16:07;;;;;;;33.88;18.33;;;;;;;;;;4974427;28;20022;-65
2023/04/18 04:18:32;;;;;;;31.57;16.50;;;;;;;;;;4971847;28;20035;-66
2023/04/18 04:20:58;;;;;;;35.13;17.13;;;;;;;;;;4975061;28;20022;-71
2023/04/18 04:23:24;;;;;;;33.20;17.65;;;;;;;;;;4972088;28;20424;-69
2023/04/18 04:25:51;;;;;;;31.17;16.60;;;;;;;;;;4971436;28;20027;-66
2023/04/18 04:28:16;;;;;;;33.03;17.30;;;;;;;;;;4972699;28;20167;-68
2023/04/18 04:30:42;;;;;;;33.47;17.75;;;;;;;;;;4970585;28;20019;-65
2023/04/18 04:33:07;;;;;;;33.55;17.65;;;;;;;;;;4967238;28;20026;-66
2023/04/18 04:35:35;;;;;;;31.53;16.67;;;;;;;;;;4969090;28;20065;-68
2023/04/18 04:38:00;;;;;;;38.13;18.15;;;;;;;;;;4977664;28;20010;-71
2023/04/18 04:40:25;;;;;;;34.72;17.25;;;;;;;;;;4979728;28;20062;-74
2023/04/18 04:42:52;;;;;;;35.90;18.23;;;;;;;;;;4970939;28;20026;-69
2023/04/18 04:45:18;;;;;;;31.60;17.23;;;;;;;;;;4976911;28;20506;-65
2023/04/18 04:47:44;;;;;;;31.48;16.63;;;;;;;;;;4971050;28;20031;-71
2023/04/18 04:50:13;;;;;;;31.77;16.90;;;;;;;;;;4969218;28;20078;-70
2023/04/18 04:52:39;;;;;;;34.03;17.40;;;;;;;;;;4971235;28;20034;-66
2023/04/18 04:55:04;;;;;;;32.22;17.27;;;;;;;;;;4967909;28;20125;-69
2023/04/18 04:57:29;;;;;;;31.35;16.92;;;;;;;;;;4973243;28;20115;-71
2023/04/18 04:59:54;;;;;;;31.13;17.02;;;;;;;;;;4970421;28;20051;-71
2023/04/18 05:02:21;;;;;;;31.83;16.93;;;;;;;;;;4965022;28;20097;-67
2023/04/18 05:04:47;;;;;;;29.70;16.15;;;;;;;;;;4972267;28;20781;-65
2023/04/18 05:07:12;;;;;;;33.00;17.27;;;;;;;;;;4973151;28;20101;-65
2023/04/18 05:09:37;;;;;;;29.92;16.77;;;;;;;;;;4971421;28;20038;-68
2023/04/18 05:12:02;;;;;;;34.23;17.57;;;;;;;;;;4971115;28;20037;-69
2023/04/18 05:14:27;;;;;;;29.35;16.88;;;;;;;;;;4968240;28;20041;-66
2023/04/18 05:16:54;;;;;;;32.47;16.40;;;;;;;;;;4969514;28;20019;-71
2023/04/18 05:19:19;;;;;;;31.75;16.33;;;;;;;;;;4974383;28;20478;-65
2023/04/18 05:21:44;;;;;;;30.47;15.40;;;;;;;;;;4978240;28;20019;-65
2023/04/18 05:24:10;;;;;;;30.50;15.57;;;;;;;;;;4976024;28;20474;-69
2023/04/18 05:26:35;;;;;;;32.17;15.57;;;;;;;;;;4971384;28;20482;-65
2023/04/18 05:29:00;;;;;;;33.30;16.27;;;;;;;;;;4972327;28;20465;-66
2023/04/18 05:31:25;;;;;;;34.47;16.97;;;;;;;;;;4974340;28;20018;-65
2023/04/18 05:33:50;;;;;;;36.85;16.95;;;;;;;;;;4974360;28;20550;-66
2023/04/18 05:36:16;;;;;;;34.23;15.87;;;;;;;;;;4974130;28;20525;-67
2023/04/18 05:38:41;;;;;;;33.47;15.73;;;;;;;;;;4974647;28;20037;-66
2023/04/18 05:41:06;;;;;;;30.00;15.87;;;;;;;;;;4971902;28;20030;-69
2023/04/18 05:43:31;;;;;;;31.40;15.63;;;;;;;;;;4963943;28;20023;-65
2023/04/18 05:45:56;;;;;;;32.70;16.05;;;;;;;;;;4954973;28;20050;-66
2023/04/18 05:48:22;;;;;;;33.90;17.33;;;;;;;;;;4954507;28;20058;-65
2023/04/18 05:50:47;;;;;;;31.63;15.95;;;;;;;;;;4955239;28;20387;-66
2023/04/18 05:53:12;;;;;;;35.63;16.50;;;;;;;;;;4954586;28;20034;-69
2023/04/18 05:55:39;;;;;;;36.67;17.13;;;;;;;;;;4966906;28;20463;-65
2023/04/18 05:58:04;;;;;;;29.85;15.75;;;;;;;;;;4966803;28;20082;-69
2023/04/18 06:00:30;;;;;;;28.95;15.38;;;;;;;;;;4982466;28;20027;-77
2023/04/18 06:02:55;;;;;;;31.88;14.93;;;;;;;;;;4973405;28;20014;-67
2023/04/18 06:05:20;;;;;;;29.57;15.37;;;;;;;;;;4974036;28;20030;-70
2023/04/18 06:07:47;;;;;;;33.30;16.10;;;;;;;;;;4977281;28;20056;-67
2023/04/18 06:10:12;;;;;;;31.35;15.70;;;;;;;;;;4971037;28;20022;-66
2023/04/18 06:12:37;;;;;;;29.10;14.68;;;;;;;;;;4975437;28;20025;-70
2023/04/18 06:15:04;;;;;;;32.13;14.70;;;;;;;;;;4996494;28;20045;-75
2023/04/18 06:17:29;;;;;;;;;;;;;;;;;;5004301;28;20030;-72
2023/04/18 06:19:54;;;;;;;29.67;14.35;;;;;;;;;;4992115;28;19906;-65
2023/04/18 06:22:19;;;;;;;26.00;12.73;;;;;;;;;;4971241;28;20023;-66
2023/04/18 06:24:45;;;;;;;27.20;13.80;;;;;;;;;;4976508;28;20523;-72
2023/04/18 06:27:10;;;;;;;29.03;13.77;;;;;;;;;;4972154;28;20177;-72
2023/04/18 06:29:36;;;;;;;26.80;13.63;;;;;;;;;;4976229;28;20023;-66
2023/04/18 06:32:02;;;;;;;30.02;14.50;;;;;;;;;;4972652;28;20026;-67
2023/04/18 06:34:27;;;;;;;29.10;14.27;;;;;;;;;;4977016;28;20414;-69
2023/04/18 06:36:52;;;;;;;25.13;12.73;;;;;;;;;;4977698;28;20165;-65
2023/04/18 06:39:17;;;;;;;25.27;13.53;;;;;;;;;;4973603;28;20081;-65
2023/04/18 06:41:42;;;;;;;28.65;14.32;;;;;;;;;;4976577;28;20023;-64
2023/04/18 06:44:07;;;;;;;30.52;14.35;;;;;;;;;;4972779;28;20061;-65
2023/04/18 06:46:32;;;;;;;24.65;13.15;;;;;;;;;;4972492;28;20413;-73
2023/04/18 06:48:58;;;;;;;33.67;15.02;;;;;;;;;;4980335;28;20022;-65
2023/04/18 06:51:23;;;;;;;26.67;14.27;;;;;;;;;;4970876;28;20031;-68
2023/04/18 06:53:51;;;;;;;28.63;14.80;;;;;;;;;;4969855;28;20034;-65
2023/04/18 06:56:16;;;;;;;25.23;13.20;;;;;;;;;;4955297;28;20031;-64
2023/04/18 06:58:41;;;;;;;27.67;13.60;;;;;;;;;;4953542;28;20019;-67
2023/04/18 07:01:07;;;;;;;25.10;13.40;;;;;;;;;;4963808;28;20023;-64
2023/04/18 07:03:32;;;;;;;28.83;13.30;;;;;;;;;;4971432;28;20481;-64
2023/04/18 07:05:58;;;;;;;32.23;15.37;;;;;;;;;;4972794;28;20080;-65
2023/04/18 07:08:23;;;;;;;29.02;14.95;;;;;;;;;;4972079;28;20380;-65
2023/04/18 07:10:48;;;;;;;27.43;13.93;;;;;;;;;;4972931;28;20030;-65
2023/04/18 07:13:13;;;;;;;27.80;13.70;;;;;;;;;;4972058;28;20092;-67
2023/04/18 07:15:38;;;;;;;26.30;13.68;;;;;;;;;;4972717;28;20030;-64
2023/04/18 07:18:04;;;;;;;28.77;14.47;;;;;;;;;;4970097;28;20470;-66
2023/04/18 07:20:29;;;;;;;32.47;14.50;;;;;;;;;;4961249;28;20038;-66
2023/04/18 07:22:54;;;;;;;25.83;13.53;;;;;;;;;;4954330;28;20070;-66
2023/04/18 07:25:19;;;;;;;28.87;14.30;;;;;;;;;;4953624;28;20435;-65
2023/04/18 07:27:45;;;;;;;28.35;14.95;;;;;;;;;;4952510;28;20027;-65
2023/04/18 07:30:10;;;;;;;29.80;14.43;;;;;;;;;;4952834;28;20023;-69
2023/04/18 07:32:35;;;;;;;27.55;13.35;;;;;;;;;;4972294;28;20794;-66
2023/04/18 07:35:01;;;;;;;29.35;14.10;;;;;;;;;;4972020;28;20149;-65
2023/04/18 07:37:26;;;;;;;27.27;14.75;;;;;;;;;;4971890;28;20033;-66
2023/04/18 07:39:51;;;;;;;26.33;13.30;;;;;;;;;;4967602;28;20085;-64
2023/04/18 07:42:16;;;;;;;29.33;14.07;;;;;;;;;;4953423;28;20023;-65
2023/04/18 07:44:42;;;;;;;27.23;14.43;;;;;;;;;;4962723;28;20125;-64
2023/04/18 07:47:10;;;;;;;30.02;14.52;;;;;;;;;;4979318;28;20660;-66
2023/04/18 07:49:35;;;;;;;26.83;13.65;;;;;;;;;;4954744;28;20506;-69
2023/04/18 07:52:01;;;;;;;28.40;15.50;;;;;;;;;;4953302;28;20023;-65
2023/04/18 07:54:26;;;;;;;28.55;14.60;;;;;;;;;;4967012;28;20023;-69
2023/04/18 07:56:51;;;;;;;29.52;13.98;;;;;;;;;;4957582;28;20019;-64
2023/04/18 07:59:16;;;;;;;24.07;12.53;;;;;;;;;;4958558;28;20133;-66
2023/04/18 08:01:42;;;;;;;27.13;13.75;;;;;;;;;;4967527;28;20022;-64
2023/04/18 08:04:07;;;;;;;26.77;13.53;;;;;;;;;;4953269;28;20024;-64
2023/04/18 08:06:33;;;;;;;26.80;13.73;;;;;;;;;;4952045;28;20023;-68
2023/04/18 08:09:02;;;;;;;28.48;14.23;;;;;;;;;;4952734;28;20019;-67
2023/04/18 08:11:27;;;;;;;27.63;14.27;;;;;;;;;;4952554;28;20066;-65
2023/04/18 08:13:52;;;;;;;26.08;13.45;;;;;;;;;;4961651;28;20031;-65
2023/04/18 08:16:17;;;;;;;28.25;14.23;;;;;;;;;;4969746;28;20393;-65
2023/04/18 08:18:42;;;;;;;27.67;14.27;;;;;;;;;;4952908;28;20030;-69
2023/04/18 08:21:07;;;;;;;25.95;13.30;;;;;;;;;;4953379;28;20095;-65
2023/04/18 08:23:32;;;;;;;27.30;14.57;;;;;;;;;;4952303;28;20038;-68
2023/04/18 08:25:58;;;;;;;26.25;12.82;;;;;;;;;;4952759;28;20016;-68
2023/04/18 08:28:23;;;;;;;25.02;12.77;;;;;;;;;;4953748;28;20038;-68
2023/04/18 08:30:49;;;;;;;22.50;12.23;;;;;;;;;;4971192;28;20089;-65
2023/04/18 08:33:15;;;;;;;25.13;13.23;;;;;;;;;;4970393;28;20375;-65
2023/04/18 08:35:40;;;;;;;25.80;13.02;;;;;;;;;;4971935;28;20030;-64
2023/04/18 08:38:06;;;;;;;24.75;12.25;;;;;;;;;;4956730;28;20495;-67
2023/04/18 08:40:31;;;;;;;25.77;13.15;;;;;;;;;;4971318;28;20041;-67
2023/04/18 08:42:57;;;;;;;26.90;12.83;;;;;;;;;;4971596;28;20046;-64
2023/04/18 08:45:23;;;;;;;26.13;12.90;;;;;;;;;;4971862;28;20054;-64
2023/04/18 08:47:48;;;;;;;24.75;13.27;;;;;;;;;;4971041;28;20030;-67
2023/04/18 08:50:13;;;;;;;23.85;12.80;;;;;;;;;;4974231;28;20390;-65
2023/04/18 08:52:43;;;;;;;25.45;13.48;;;;;;;;;;4956534;28;20027;-64
2023/04/18 08:55:09;;;;;;;26.80;12.57;;;;;;;;;;4957166;28;20157;-67
2023/04/18 08:57:34;;;;;;;22.75;12.35;;;;;;;;;;4960229;28;20042;-65
2023/04/18 09:00:00;;;;;;;26.58;12.75;;;;;;;;;;4962733;28;20245;-66
2023/04/18 09:02:45;;;;;;;25.52;13.07;;;;;;;;;;4981770;28;20030;-67
2023/04/18 09:05:15;;;;;;;21.65;11.88;;;;;;;;;;4977266;28;20069;-66
2023/04/18 09:07:40;;;;;;;26.02;12.13;;;;;;;;;;4975711;28;20069;-64
2023/04/18 09:10:06;;;;;;;23.55;11.20;;;;;;;;;;4975145;28;20026;-65
2023/04/18 09:12:33;;;;;;;24.55;13.10;;;;;;;;;;4975158;28;20030;-67
2023/04/18 09:15:09;;;;;;;25.23;12.18;;;;;;;;;;4975319;28;20026;-64
2023/04/18 09:17:34;;;;;;;24.92;11.32;;;;;;;;;;4974112;28;20022;-65
2023/04/18 09:20:08;;;;;;;25.77;13.00;;;;;;;;;;4973366;28;20030;-68
2023/04/18 09:22:50;;;;;;;27.77;13.50;;;;;;;;;;4966763;28;20574;-67
2023/04/18 09:25:36;;;;;;;25.65;12.60;;;;;;;;;;4974510;28;20018;-68
2023/04/18 09:28:03;;;;;;;27.83;13.07;;;;;;;;;;4973968;28;20031;-68
2023/04/18 09:30:30;;;;;;;25.77;13.07;;;;;;;;;;4974422;28;20348;-64
2023/04/18 09:32:57;;;;;;;22.48;12.15;;;;;;;;;;4974831;28;20023;-68
2023/04/18 09:35:23;;;;;;;24.25;12.15;;;;;;;;;;4974555;28;20150;-67
2023/04/18 09:37:49;;;;;;;26.35;13.63;;;;;;;;;;4972918;28;20081;-67
2023/04/18 09:40:15;;;;;;;27.13;13.80;;;;;;;;;;4964798;28;20109;-67
2023/04/18 09:42:41;;;;;;;26.17;12.88;;;;;;;;;;4974614;28;20027;-67
2023/04/18 09:45:07;;;;;;;29.25;13.98;;;;;;;;;;4975799;28;20035;-65
2023/04/18 09:47:36;;;;;;;27.42;13.45;;;;;;;;;;4974190;28;20019;-67
2023/04/18 09:50:02;;;;;;;30.63;13.43;;;;;;;;;;4974172;28;20081;-65
2023/04/18 09:52:30;;;;;;;29.95;13.43;;;;;;;;;;4974423;28;20062;-64
2023/04/18 09:54:57;;;;;;;27.45;13.80;;;;;;;;;;4972633;28;20114;-64
2023/04/18 09:57:25;;;;;;;24.85;13.60;;;;;;;;;;4955442;28;20015;-65
2023/04/18 09:59:53;;;;;;;28.30;13.93;;;;;;;;;;4954107;28;20028;-69
2023/04/18 10:02:20;;;;;;;27.30;14.18;;;;;;;;;;4953704;29;20035;-65
2023/04/18 10:04:45;;;;;;;29.42;14.25;;;;;;;;;;4955262;28;20543;-66
2023/04/18 10:07:11;;;;;;;27.05;13.68;;;;;;;;;;4955619;28;20123;-66
2023/04/18 10:09:38;;;;;;;24.63;13.65;;;;;;;;;;4955547;28;20058;-69
2023/04/18 10:12:03;;;;;;;24.27;13.57;;;;;;;;;;4975447;28;20023;-65
2023/04/18 10:14:32;;;;;;;25.00;13.48;;;;;;;;;;4955656;28;20023;-66
2023/04/18 10:16:57;;;;;;;26.15;13.68;;;;;;;;;;4954321;28;20468;-65
2023/04/18 10:19:24;;;;;;;26.90;13.95;;;;;;;;;;4954258;28;20034;-64
2023/04/18 10:21:49;;;;;;;29.48;15.27;;;;;;;;;;4954485;28;20054;-65
2023/04/18 10:24:33;;;;;;;30.30;14.60;;;;;;;;;;4954778;28;20074;-67
2023/04/18 10:26:58;;;;;;;27.40;14.13;;;;;;;;;;4962281;28;20026;-68
2023/04/18 10:29:43;;;;;;;29.20;15.57;;;;;;;;;;4963242;28;20026;-65
2023/04/18 10:32:09;;;;;;;30.77;15.90;;;;;;;;;;4953858;29;20019;-65
2023/04/18 10:34:35;;;;;;;30.33;16.60;;;;;;;;;;4954044;28;20502;-65
2023/04/18 10:37:03;;;;;;;27.15;15.48;;;;;;;;;;4967791;28;20458;-67
2023/04/18 10:39:29;;;;;;;30.02;15.70;;;;;;;;;;4973091;28;20041;-68
2023/04/18 10:41:54;;;;;;;27.53;15.13;;;;;;;;;;4972713;28;20534;-69
2023/04/18 10:44:21;;;;;;;27.27;13.10;;;;;;;;;;4971234;28;20479;-67
2023/04/18 10:46:49;;;;;;;25.05;14.32;;;;;;;;;;4965717;28;20051;-66
2023/04/18 10:49:15;;;;;;;25.00;13.93;;;;;;;;;;4964058;28;20034;-65
2023/04/18 10:51:41;;;;;;;26.35;14.10;;;;;;;;;;4954032;28;20019;-64
2023/04/18 10:54:09;;;;;;;24.50;13.52;;;;;;;;;;4953710;28;20082;-66
2023/04/18 10:56:34;;;;;;;24.65;13.82;;;;;;;;;;4953209;28;20027;-66
2023/04/18 10:59:00;;;;;;;25.25;13.98;;;;;;;;;;4957796;28;20482;-68
2023/04/18 11:01:28;;;;;;;26.45;13.75;;;;;;;;;;4970086;28;20021;-68
2023/04/18 11:03:54;;;;;;;27.58;14.35;;;;;;;;;;4972657;28;20026;-66
2023/04/18 11:06:22;;;;;;;29.13;15.23;;;;;;;;;;4973868;28;20030;-64
2023/04/18 11:08:48;;;;;;;26.15;13.93;;;;;;;;;;4974799;28;20049;-67
2023/04/18 11:11:14;;;;;;;25.75;13.68;;;;;;;;;;4972868;28;20027;-69
2023/04/18 11:14:11;;;;;;;30.23;15.07;;;;;;;;;;4972693;28;20026;-66
2023/04/18 11:16:36;;;;;;;27.77;14.55;;;;;;;;;;4947952;28;20023;-66
2023/04/18 11:19:19;;;;;;;28.70;14.90;;;;;;;;;;4959700;28;20015;-68
2023/04/18 11:21:44;;;;;;;29.17;14.63;;;;;;;;;;4965947;28;20031;-67
2023/04/18 11:24:09;;;;;;;30.90;16.20;;;;;;;;;;4972611;28;20057;-65
2023/04/18 11:26:36;;;;;;;32.30;15.40;;;;;;;;;;4971861;28;20022;-65
2023/04/18 11:29:03;;;;;;;29.00;15.45;;;;;;;;;;4972607;28;20019;-68
2023/04/18 11:31:29;;;;;;;29.95;14.95;;;;;;;;;;4970735;28;20058;-67
2023/04/18 11:33:55;;;;;;;30.30;16.08;;;;;;;;;;4973190;28;20042;-66
2023/04/18 11:36:20;;;;;;;27.60;14.55;;;;;;;;;;4979550;28;20061;-67
2023/04/18 11:38:45;;;;;;;28.70;14.63;;;;;;;;;;4978760;28;20101;-64
2023/04/18 11:41:11;;;;;;;30.77;15.70;;;;;;;;;;4982149;28;20034;-68
2023/04/18 11:43:36;;;;;;;30.85;16.05;;;;;;;;;;4977772;28;20026;-67
2023/04/18 11:46:01;;;;;;;29.98;15.45;;;;;;;;;;4974878;28;20054;-64
2023/04/18 11:48:33;;;;;;;30.53;16.50;;;;;;;;;;4971570;28;20045;-65
2023/04/18 11:50:58;;;;;;;28.10;14.75;;;;;;;;;;4954998;28;20447;-65
2023/04/18 11:53:33;;;;;;;28.20;15.18;;;;;;;;;;4953670;28;20027;-64
2023/04/18 11:56:02;;;;;;;27.33;14.48;;;;;;;;;;4953209;28;20072;-67
2023/04/18 11:58:31;;;;;;;24.58;13.98;;;;;;;;;;4952565;28;20073;-66
2023/04/18 12:00:57;;;;;;;30.00;15.73;;;;;;;;;;4952742;28;20107;-66
2023/04/18 12:03:23;;;;;;;27.15;14.73;;;;;;;;;;4962506;28;20445;-64
2023/04/18 12:05:56;;;;;;;30.48;14.57;;;;;;;;;;4966826;28;20589;-64
2023/04/18 12:08:23;;;;;;;26.27;14.52;;;;;;;;;;4969246;28;20031;-64
2023/04/18 12:10:49;;;;;;;28.38;15.07;;;;;;;;;;4952819;28;20531;-66
2023/04/18 12:13:15;;;;;;;28.85;14.85;;;;;;;;;;4952463;28;20027;-69
2023/04/18 12:15:42;;;;;;;31.77;16.85;;;;;;;;;;4952490;28;20035;-64
2023/04/18 12:18:07;;;;;;;29.73;15.80;;;;;;;;;;4952327;28;20027;-64
2023/04/18 12:20:36;;;;;;;26.85;15.00;;;;;;;;;;4955449;28;20038;-65
2023/04/18 12:23:02;;;;;;;26.75;15.27;;;;;;;;;;4975000;28;20030;-66
2023/04/18 12:25:28;;;;;;;27.42;15.07;;;;;;;;;;4975738;28;20019;-68
2023/04/18 12:28:11;;;;;;;28.23;15.25;;;;;;;;;;4974928;28;20081;-65
2023/04/18 12:30:36;;;;;;;27.48;15.52;;;;;;;;;;4975806;28;20151;-64
2023/04/18 12:33:02;;;;;;;30.17;17.42;;;;;;;;;;4973301;28;20022;-66
2023/04/18 12:35:28;;;;;;;29.75;16.48;;;;;;;;;;4969563;28;20046;-65
2023/04/18 12:37:55;;;;;;;30.13;16.05;;;;;;;;;;4974620;28;20011;-64
2023/04/18 12:40:21;;;;;;;31.92;16.20;;;;;;;;;;4975411;28;20023;-65
2023/04/18 12:42:48;;;;;;;28.92;16.33;;;;;;;;;;4975940;28;20101;-64
2023/04/18 12:45:14;;;;;;;28.42;14.90;;;;;;;;;;4977317;28;20094;-68
2023/04/18 12:47:40;;;;;;;29.75;16.05;;;;;;;;;;4975169;28;20030;-67
2023/04/18 12:50:06;;;;;;;29.35;15.90;;;;;;;;;;4957462;28;20059;-64
2023/04/18 12:52:31;;;;;;;26.27;14.80;;;;;;;;;;4957226;28;20034;-67
2023/04/18 12:54:56;;;;;;;28.77;15.93;;;;;;;;;;4956297;28;20031;-64
2023/04/18 12:57:22;;;;;;;26.33;14.80;;;;;;;;;;4955589;28;20391;-66
2023/04/18 12:59:47;;;;;;;26.52;13.85;;;;;;;;;;4955749;28;20106;-65
2023/04/18 13:02:12;;;;;;;27.55;15.60;;;;;;;;;;4955176;28;20023;-64
2023/04/18 13:04:37;;;;;;;27.20;14.75;;;;;;;;;;4968012;28;20030;-67
2023/04/18 13:07:03;;;;;;;23.60;13.97;;;;;;;;;;4974677;28;20034;-65
2023/04/18 13:09:28;;;;;;;26.90;13.57;;;;;;;;;;4975938;28;20034;-69
2023/04/18 13:11:53;;;;;;;28.17;14.40;;;;;;;;;;4975386;28;20010;-64
2023/04/18 13:14:18;;;;;;;27.43;13.70;;;;;;;;;;4968069;28;20611;-69
2023/04/18 13:16:43;;;;;;;26.05;13.80;;;;;;;;;;4966662;28;20030;-65
2023/04/18 13:19:08;;;;;;;24.97;13.97;;;;;;;;;;4970410;28;20062;-71
2023/04/18 13:21:33;;;;;;;24.40;13.18;;;;;;;;;;4977206;28;20030;-68
2023/04/18 13:23:59;;;;;;;23.70;13.23;;;;;;;;;;4973185;28;20030;-66
2023/04/18 13:26:25;;;;;;;24.10;13.70;;;;;;;;;;4973597;28;20557;-64
2023/04/18 13:28:50;;;;;;;24.35;13.15;;;;;;;;;;4971952;28;20395;-70
2023/04/18 13:31:15;;;;;;;25.33;13.30;;;;;;;;;;4973281;28;20017;-65
2023/04/18 13:33:40;;;;;;;26.58;13.95;;;;;;;;;;4973198;28;20022;-67
2023/04/18 13:36:05;;;;;;;25.97;13.17;;;;;;;;;;4962626;28;20399;-65
2023/04/18 13:38:31;;;;;;;23.33;12.57;;;;;;;;;;4968311;28;20023;-71
2023/04/18 13:40:58;;;;;;;23.55;13.00;;;;;;;;;;4970699;28;20026;-68
2023/04/18 13:43:23;;;;;;;22.60;11.85;;;;;;;;;;4970217;28;20427;-65
2023/04/18 13:45:48;;;;;;;24.13;12.68;;;;;;;;;;4973436;28;20050;-67
2023/04/18 13:48:13;;;;;;;22.85;12.90;;;;;;;;;;4963008;28;20038;-66
2023/04/18 13:50:39;;;;;;;24.40;12.67;;;;;;;;;;4974695;28;20021;-66
2023/04/18 13:53:04;;;;;;;26.67;12.98;;;;;;;;;;4968894;28;20055;-65
2023/04/18 13:55:29;;;;;;;25.42;12.38;;;;;;;;;;4972435;28;20054;-64
2023/04/18 13:57:55;;;;;;;23.20;12.35;;;;;;;;;;4971390;28;20375;-65
2023/04/18 14:00:20;;;;;;;21.17;11.97;;;;;;;;;;4970705;28;20023;-65
2023/04/18 14:02:45;;;;;;;21.13;11.60;;;;;;;;;;4973659;28;20022;-65
2023/04/18 14:05:10;;;;;;;21.97;12.37;;;;;;;;;;4972927;28;20077;-69
2023/04/18 14:07:37;;;;;;;23.33;12.93;;;;;;;;;;4971522;28;20038;-64
2023/04/18 14:10:02;;;;;;;21.48;11.43;;;;;;;;;;4957774;28;20019;-65
2023/04/18 14:12:27;;;;;;;20.38;11.60;;;;;;;;;;4964619;28;20030;-64